sensor_id;sensor_type;location;lat;lon;timestamp;P1;durP1;ratioP1;P2;durP2;ratioP2
67715;SDS011;54508;43.238;25.306;2024-03-23T00:55:58;6.13;;;3.85;;
67715;SDS011;54508;43.238;25.306;2024-03-23T00:58:24;6.10;;;3.83;;
67715;SDS011;54508;43.238;25.306;2024-03-23T01:00:49;4.93;;;3.70;;
67715;SDS011;54508;43.238;25.306;2024-03-23T01:03:14;5.33;;;3.50;;
67715;SDS011;54508;43.238;25.306;2024-03-23T01:05:40;5.95;;;4.13;;
67715;SDS011;54508;43.238;25.306;2024-03-23T01:08:05;4.47;;;3.67;;
67715;SDS011;54508;43.238;25.306;2024-03-23T01:10:31;5.87;;;3.53;;
67715;SDS011;54508;43.238;25.306;2024-03-23T01:12:56;4.95;;;3.50;;
67715;SDS011;54508;43.238;25.306;2024-03-23T01:15:22;5.40;;;3.87;;
67715;SDS011;54508;43.238;25.306;2024-03-23T01:17:47;3.87;;;3.37;;
67715;SDS011;54508;43.238;25.306;2024-03-23T01:20:13;4.70;;;3.80;;
67715;SDS011;54508;43.238;25.306;2024-03-23T01:22:38;4.85;;;3.50;;
67715;SDS011;54508;43.238;25.306;2024-03-23T01:25:04;5.90;;;4.50;;
67715;SDS011;54508;43.238;25.306;2024-03-23T01:27:29;5.17;;;3.90;;
67715;SDS011;54508;43.238;25.306;2024-03-23T01:29:54;4.83;;;4.00;;
67715;SDS011;54508;43.238;25.306;2024-03-23T01:32:20;6.07;;;3.97;;
67715;SDS011;54508;43.238;25.306;2024-03-23T01:34:45;5.33;;;3.93;;
67715;SDS011;54508;43.238;25.306;2024-03-23T01:37:11;5.47;;;4.03;;
67715;SDS011;54508;43.238;25.306;2024-03-23T01:39:36;4.67;;;3.93;;
67715;SDS011;54508;43.238;25.306;2024-03-23T01:42:02;4.57;;;3.97;;
67715;SDS011;54508;43.238;25.306;2024-03-23T01:44:27;4.97;;;3.40;;
67715;SDS011;54508;43.238;25.306;2024-03-23T01:46:53;4.77;;;3.67;;
67715;SDS011;54508;43.238;25.306;2024-03-23T01:49:18;4.97;;;4.03;;
67715;SDS011;54508;43.238;25.306;2024-03-23T01:51:44;3.90;;;3.38;;
67715;SDS011;54508;43.238;25.306;2024-03-23T01:54:09;4.77;;;4.03;;
67715;SDS011;54508;43.238;25.306;2024-03-23T01:56:35;5.45;;;4.00;;
67715;SDS011;54508;43.238;25.306;2024-03-23T01:59:07;4.20;;;3.30;;
67715;SDS011;54508;43.238;25.306;2024-03-23T02:01:33;4.15;;;3.75;;
67715;SDS011;54508;43.238;25.306;2024-03-23T02:04:01;4.65;;;3.90;;
67715;SDS011;54508;43.238;25.306;2024-03-23T02:06:26;7.07;;;4.40;;
67715;SDS011;54508;43.238;25.306;2024-03-23T02:08:52;4.93;;;4.20;;
67715;SDS011;54508;43.238;25.306;2024-03-23T02:11:18;5.15;;;3.75;;
67715;SDS011;54508;43.238;25.306;2024-03-23T02:13:44;4.83;;;3.90;;
67715;SDS011;54508;43.238;25.306;2024-03-23T02:16:09;5.43;;;4.07;;
67715;SDS011;54508;43.238;25.306;2024-03-23T02:18:35;4.70;;;3.97;;
67715;SDS011;54508;43.238;25.306;2024-03-23T02:21:00;5.57;;;4.00;;
67715;SDS011;54508;43.238;25.306;2024-03-23T02:23:26;5.43;;;3.83;;
67715;SDS011;54508;43.238;25.306;2024-03-23T02:25:51;5.73;;;3.83;;
67715;SDS011;54508;43.238;25.306;2024-03-23T02:28:18;6.10;;;3.75;;
67715;SDS011;54508;43.238;25.306;2024-03-23T02:30:44;4.70;;;3.67;;
67715;SDS011;54508;43.238;25.306;2024-03-23T02:33:09;5.33;;;3.87;;
67715;SDS011;54508;43.238;25.306;2024-03-23T02:35:35;4.80;;;4.03;;
67715;SDS011;54508;43.238;25.306;2024-03-23T02:38:00;5.53;;;4.10;;
67715;SDS011;54508;43.238;25.306;2024-03-23T02:40:26;5.05;;;4.18;;
67715;SDS011;54508;43.238;25.306;2024-03-23T02:42:52;7.93;;;4.05;;
67715;SDS011;54508;43.238;25.306;2024-03-23T02:45:18;5.32;;;3.90;;
67715;SDS011;54508;43.238;25.306;2024-03-23T02:47:43;5.37;;;4.10;;
67715;SDS011;54508;43.238;25.306;2024-03-23T02:50:09;5.37;;;4.33;;
67715;SDS011;54508;43.238;25.306;2024-03-23T02:52:35;6.47;;;4.40;;
67715;SDS011;54508;43.238;25.306;2024-03-23T02:55:01;6.03;;;4.22;;
67715;SDS011;54508;43.238;25.306;2024-03-23T02:57:29;5.13;;;4.55;;
67715;SDS011;54508;43.238;25.306;2024-03-23T02:59:55;5.53;;;4.20;;
67715;SDS011;54508;43.238;25.306;2024-03-23T03:02:20;5.68;;;4.65;;
67715;SDS011;54508;43.238;25.306;2024-03-23T03:04:46;5.97;;;4.70;;
67715;SDS011;54508;43.238;25.306;2024-03-23T03:07:11;6.60;;;5.07;;
67715;SDS011;54508;43.238;25.306;2024-03-23T03:09:37;5.83;;;4.80;;
67715;SDS011;54508;43.238;25.306;2024-03-23T03:12:04;6.95;;;4.82;;
67715;SDS011;54508;43.238;25.306;2024-03-23T03:14:30;6.23;;;4.80;;
67715;SDS011;54508;43.238;25.306;2024-03-23T03:16:55;6.50;;;4.78;;
67715;SDS011;54508;43.238;25.306;2024-03-23T03:19:21;7.80;;;5.30;;
67715;SDS011;54508;43.238;25.306;2024-03-23T03:21:46;6.97;;;5.43;;
67715;SDS011;54508;43.238;25.306;2024-03-23T03:24:12;7.07;;;5.28;;
67715;SDS011;54508;43.238;25.306;2024-03-23T03:26:38;6.37;;;5.50;;
67715;SDS011;54508;43.238;25.306;2024-03-23T03:29:03;6.87;;;5.33;;
67715;SDS011;54508;43.238;25.306;2024-03-23T03:31:29;6.25;;;5.65;;
67715;SDS011;54508;43.238;25.306;2024-03-23T03:33:54;7.03;;;5.73;;
67715;SDS011;54508;43.238;25.306;2024-03-23T03:36:20;6.30;;;5.23;;
67715;SDS011;54508;43.238;25.306;2024-03-23T03:38:46;6.60;;;5.38;;
67715;SDS011;54508;43.238;25.306;2024-03-23T03:41:11;6.93;;;5.73;;
67715;SDS011;54508;43.238;25.306;2024-03-23T03:43:36;6.33;;;5.23;;
67715;SDS011;54508;43.238;25.306;2024-03-23T03:46:03;5.72;;;5.00;;
67715;SDS011;54508;43.238;25.306;2024-03-23T03:48:28;5.53;;;5.00;;
67715;SDS011;54508;43.238;25.306;2024-03-23T03:50:54;7.35;;;5.60;;
67715;SDS011;54508;43.238;25.306;2024-03-23T03:53:20;6.27;;;4.90;;
67715;SDS011;54508;43.238;25.306;2024-03-23T03:55:45;5.53;;;4.87;;
67715;SDS011;54508;43.238;25.306;2024-03-23T03:58:10;6.57;;;5.17;;
67715;SDS011;54508;43.238;25.306;2024-03-23T04:00:36;7.40;;;5.25;;
67715;SDS011;54508;43.238;25.306;2024-03-23T04:03:02;6.63;;;5.50;;
67715;SDS011;54508;43.238;25.306;2024-03-23T04:05:27;6.85;;;5.95;;
67715;SDS011;54508;43.238;25.306;2024-03-23T04:07:53;6.80;;;5.40;;
67715;SDS011;54508;43.238;25.306;2024-03-23T04:10:19;6.28;;;5.68;;
67715;SDS011;54508;43.238;25.306;2024-03-23T04:12:45;7.67;;;5.80;;
67715;SDS011;54508;43.238;25.306;2024-03-23T04:15:11;9.13;;;5.22;;
67715;SDS011;54508;43.238;25.306;2024-03-23T04:17:36;6.45;;;5.25;;
67715;SDS011;54508;43.238;25.306;2024-03-23T04:20:02;8.47;;;5.53;;
67715;SDS011;54508;43.238;25.306;2024-03-23T04:22:36;6.78;;;5.38;;
67715;SDS011;54508;43.238;25.306;2024-03-23T04:25:02;6.22;;;5.13;;
67715;SDS011;54508;43.238;25.306;2024-03-23T04:27:32;5.73;;;5.13;;
67715;SDS011;54508;43.238;25.306;2024-03-23T04:29:58;7.03;;;5.50;;
67715;SDS011;54508;43.238;25.306;2024-03-23T04:32:23;7.10;;;5.50;;
67715;SDS011;54508;43.238;25.306;2024-03-23T04:34:48;8.30;;;5.70;;
67715;SDS011;54508;43.238;25.306;2024-03-23T04:37:14;7.10;;;5.10;;
67715;SDS011;54508;43.238;25.306;2024-03-23T04:39:39;6.60;;;5.10;;
67715;SDS011;54508;43.238;25.306;2024-03-23T04:42:05;6.23;;;5.37;;
67715;SDS011;54508;43.238;25.306;2024-03-23T04:44:30;7.72;;;5.38;;
67715;SDS011;54508;43.238;25.306;2024-03-23T04:46:56;7.77;;;5.40;;
67715;SDS011;54508;43.238;25.306;2024-03-23T04:49:22;7.25;;;5.60;;
67715;SDS011;54508;43.238;25.306;2024-03-23T04:51:48;7.50;;;5.53;;
67715;SDS011;54508;43.238;25.306;2024-03-23T04:54:13;8.07;;;5.90;;
67715;SDS011;54508;43.238;25.306;2024-03-23T04:56:39;6.75;;;5.25;;
67715;SDS011;54508;43.238;25.306;2024-03-23T04:59:04;6.47;;;5.40;;
67715;SDS011;54508;43.238;25.306;2024-03-23T05:01:32;8.53;;;5.47;;
67715;SDS011;54508;43.238;25.306;2024-03-23T05:03:57;6.28;;;5.20;;
67715;SDS011;54508;43.238;25.306;2024-03-23T05:06:23;7.45;;;5.70;;
67715;SDS011;54508;43.238;25.306;2024-03-23T05:08:50;7.15;;;5.65;;
67715;SDS011;54508;43.238;25.306;2024-03-23T05:11:15;7.22;;;5.72;;
67715;SDS011;54508;43.238;25.306;2024-03-23T05:13:41;6.83;;;5.53;;
67715;SDS011;54508;43.238;25.306;2024-03-23T05:16:07;8.40;;;5.95;;
67715;SDS011;54508;43.238;25.306;2024-03-23T05:18:33;8.27;;;5.60;;
67715;SDS011;54508;43.238;25.306;2024-03-23T05:20:59;7.43;;;5.43;;
67715;SDS011;54508;43.238;25.306;2024-03-23T05:23:25;6.05;;;5.20;;
67715;SDS011;54508;43.238;25.306;2024-03-23T05:25:51;8.83;;;5.63;;
67715;SDS011;54508;43.238;25.306;2024-03-23T05:28:17;5.70;;;5.10;;
67715;SDS011;54508;43.238;25.306;2024-03-23T05:30:43;7.07;;;5.70;;
67715;SDS011;54508;43.238;25.306;2024-03-23T05:33:08;7.25;;;5.07;;
67715;SDS011;54508;43.238;25.306;2024-03-23T05:35:34;6.57;;;5.40;;
67715;SDS011;54508;43.238;25.306;2024-03-23T05:37:59;6.17;;;5.20;;
67715;SDS011;54508;43.238;25.306;2024-03-23T05:40:26;6.45;;;5.18;;
67715;SDS011;54508;43.238;25.306;2024-03-23T05:42:51;6.43;;;5.47;;
67715;SDS011;54508;43.238;25.306;2024-03-23T05:45:21;7.95;;;5.50;;
67715;SDS011;54508;43.238;25.306;2024-03-23T05:47:47;6.53;;;5.28;;
67715;SDS011;54508;43.238;25.306;2024-03-23T05:50:13;7.15;;;5.25;;
67715;SDS011;54508;43.238;25.306;2024-03-23T05:52:39;7.72;;;5.35;;
67715;SDS011;54508;43.238;25.306;2024-03-23T05:55:05;7.80;;;5.70;;
67715;SDS011;54508;43.238;25.306;2024-03-23T05:57:31;8.05;;;5.20;;
67715;SDS011;54508;43.238;25.306;2024-03-23T05:59:57;6.87;;;5.03;;
67715;SDS011;54508;43.238;25.306;2024-03-23T06:02:22;6.38;;;5.13;;
67715;SDS011;54508;43.238;25.306;2024-03-23T06:04:48;5.63;;;4.93;;
67715;SDS011;54508;43.238;25.306;2024-03-23T06:07:14;5.87;;;5.17;;
67715;SDS011;54508;43.238;25.306;2024-03-23T06:09:42;5.95;;;5.10;;
67715;SDS011;54508;43.238;25.306;2024-03-23T06:12:08;6.20;;;4.90;;
67715;SDS011;54508;43.238;25.306;2024-03-23T06:14:34;6.80;;;5.33;;
67715;SDS011;54508;43.238;25.306;2024-03-23T06:16:59;6.18;;;4.65;;
67715;SDS011;54508;43.238;25.306;2024-03-23T06:19:25;6.73;;;4.80;;
67715;SDS011;54508;43.238;25.306;2024-03-23T06:21:53;8.02;;;5.72;;
67715;SDS011;54508;43.238;25.306;2024-03-23T06:24:20;10.30;;;5.87;;
67715;SDS011;54508;43.238;25.306;2024-03-23T06:26:46;7.22;;;5.18;;
67715;SDS011;54508;43.238;25.306;2024-03-23T06:29:12;9.30;;;5.90;;
67715;SDS011;54508;43.238;25.306;2024-03-23T06:31:37;11.57;;;5.85;;
67715;SDS011;54508;43.238;25.306;2024-03-23T06:34:03;9.80;;;6.03;;
67715;SDS011;54508;43.238;25.306;2024-03-23T06:36:28;28.93;;;10.10;;
67715;SDS011;54508;43.238;25.306;2024-03-23T06:38:55;17.45;;;8.25;;
67715;SDS011;54508;43.238;25.306;2024-03-23T06:41:21;13.97;;;7.10;;
67715;SDS011;54508;43.238;25.306;2024-03-23T06:43:46;10.52;;;6.28;;
67715;SDS011;54508;43.238;25.306;2024-03-23T06:46:12;14.70;;;6.47;;
67715;SDS011;54508;43.238;25.306;2024-03-23T06:48:37;13.63;;;5.97;;
67715;SDS011;54508;43.238;25.306;2024-03-23T06:51:03;9.73;;;6.07;;
67715;SDS011;54508;43.238;25.306;2024-03-23T06:53:29;10.15;;;5.45;;
67715;SDS011;54508;43.238;25.306;2024-03-23T06:55:54;14.50;;;5.77;;
67715;SDS011;54508;43.238;25.306;2024-03-23T06:58:21;12.45;;;5.35;;
67715;SDS011;54508;43.238;25.306;2024-03-23T07:00:50;11.18;;;5.60;;
67715;SDS011;54508;43.238;25.306;2024-03-23T07:03:18;15.25;;;5.82;;
67715;SDS011;54508;43.238;25.306;2024-03-23T07:05:43;16.13;;;5.53;;
67715;SDS011;54508;43.238;25.306;2024-03-23T07:08:09;19.03;;;7.90;;
67715;SDS011;54508;43.238;25.306;2024-03-23T07:10:40;10.48;;;8.88;;
67715;SDS011;54508;43.238;25.306;2024-03-23T07:13:05;24.75;;;9.32;;
67715;SDS011;54508;43.238;25.306;2024-03-23T07:15:31;10.90;;;8.30;;
67715;SDS011;54508;43.238;25.306;2024-03-23T07:17:56;11.83;;;7.57;;
67715;SDS011;54508;43.238;25.306;2024-03-23T07:20:22;12.85;;;7.85;;
67715;SDS011;54508;43.238;25.306;2024-03-23T07:22:47;15.67;;;7.10;;
67715;SDS011;54508;43.238;25.306;2024-03-23T07:25:13;13.00;;;6.40;;
67715;SDS011;54508;43.238;25.306;2024-03-23T07:27:38;11.30;;;6.07;;
67715;SDS011;54508;43.238;25.306;2024-03-23T07:30:04;13.77;;;6.67;;
67715;SDS011;54508;43.238;25.306;2024-03-23T07:32:30;10.80;;;6.40;;
67715;SDS011;54508;43.238;25.306;2024-03-23T07:34:56;8.10;;;5.60;;
67715;SDS011;54508;43.238;25.306;2024-03-23T07:37:21;11.20;;;6.07;;
67715;SDS011;54508;43.238;25.306;2024-03-23T07:39:47;14.35;;;6.35;;
67715;SDS011;54508;43.238;25.306;2024-03-23T07:42:12;28.40;;;6.85;;
67715;SDS011;54508;43.238;25.306;2024-03-23T07:44:38;22.50;;;6.87;;
67715;SDS011;54508;43.238;25.306;2024-03-23T07:47:03;22.60;;;7.05;;
67715;SDS011;54508;43.238;25.306;2024-03-23T07:49:29;15.77;;;6.28;;
67715;SDS011;54508;43.238;25.306;2024-03-23T07:51:54;14.47;;;6.70;;
67715;SDS011;54508;43.238;25.306;2024-03-23T07:54:20;15.98;;;6.25;;
67715;SDS011;54508;43.238;25.306;2024-03-23T07:56:45;19.67;;;6.03;;
67715;SDS011;54508;43.238;25.306;2024-03-23T07:59:11;18.70;;;6.30;;
67715;SDS011;54508;43.238;25.306;2024-03-23T08:01:36;12.13;;;5.40;;
67715;SDS011;54508;43.238;25.306;2024-03-23T08:04:02;18.38;;;6.20;;
67715;SDS011;54508;43.238;25.306;2024-03-23T08:06:27;16.33;;;5.63;;
67715;SDS011;54508;43.238;25.306;2024-03-23T08:08:54;15.20;;;5.37;;
67715;SDS011;54508;43.238;25.306;2024-03-23T08:11:27;12.57;;;5.20;;
67715;SDS011;54508;43.238;25.306;2024-03-23T08:13:56;8.88;;;5.25;;
67715;SDS011;54508;43.238;25.306;2024-03-23T08:16:22;7.57;;;4.72;;
67715;SDS011;54508;43.238;25.306;2024-03-23T08:18:48;9.23;;;5.33;;
67715;SDS011;54508;43.238;25.306;2024-03-23T08:21:13;9.03;;;4.77;;
67715;SDS011;54508;43.238;25.306;2024-03-23T08:23:39;12.52;;;5.78;;
67715;SDS011;54508;43.238;25.306;2024-03-23T08:26:06;7.83;;;4.97;;
67715;SDS011;54508;43.238;25.306;2024-03-23T08:28:32;9.95;;;4.70;;
67715;SDS011;54508;43.238;25.306;2024-03-23T08:31:00;9.65;;;4.78;;
67715;SDS011;54508;43.238;25.306;2024-03-23T08:33:30;9.43;;;4.80;;
67715;SDS011;54508;43.238;25.306;2024-03-23T08:36:00;10.63;;;5.57;;
67715;SDS011;54508;43.238;25.306;2024-03-23T08:38:26;9.50;;;4.90;;
67715;SDS011;54508;43.238;25.306;2024-03-23T08:43:28;6.97;;;4.72;;
67715;SDS011;54508;43.238;25.306;2024-03-23T08:46:03;10.02;;;4.72;;
67715;SDS011;54508;43.238;25.306;2024-03-23T08:48:39;11.30;;;5.00;;
67715;SDS011;54508;43.238;25.306;2024-03-23T08:51:08;10.50;;;4.90;;
67715;SDS011;54508;43.238;25.306;2024-03-23T08:53:35;7.53;;;5.03;;
67715;SDS011;54508;43.238;25.306;2024-03-23T08:56:01;10.02;;;4.95;;
67715;SDS011;54508;43.238;25.306;2024-03-23T08:58:27;7.25;;;4.82;;
67715;SDS011;54508;43.238;25.306;2024-03-23T09:00:55;11.60;;;4.53;;
67715;SDS011;54508;43.238;25.306;2024-03-23T09:03:22;10.75;;;5.07;;
67715;SDS011;54508;43.238;25.306;2024-03-23T09:05:48;10.55;;;4.28;;
67715;SDS011;54508;43.238;25.306;2024-03-23T09:08:14;14.05;;;5.43;;
67715;SDS011;54508;43.238;25.306;2024-03-23T09:10:39;12.15;;;5.55;;
67715;SDS011;54508;43.238;25.306;2024-03-23T09:13:06;11.32;;;4.82;;
67715;SDS011;54508;43.238;25.306;2024-03-23T09:15:45;7.00;;;4.30;;
67715;SDS011;54508;43.238;25.306;2024-03-23T09:18:11;12.73;;;4.78;;
67715;SDS011;54508;43.238;25.306;2024-03-23T09:20:37;8.47;;;4.40;;
67715;SDS011;54508;43.238;25.306;2024-03-23T09:23:02;12.27;;;4.13;;
67715;SDS011;54508;43.238;25.306;2024-03-23T09:25:27;7.47;;;4.38;;
67715;SDS011;54508;43.238;25.306;2024-03-23T09:27:53;7.67;;;4.07;;
67715;SDS011;54508;43.238;25.306;2024-03-23T09:30:18;11.17;;;4.13;;
67715;SDS011;54508;43.238;25.306;2024-03-23T09:32:53;14.80;;;4.45;;
67715;SDS011;54508;43.238;25.306;2024-03-23T09:35:22;9.10;;;3.85;;
67715;SDS011;54508;43.238;25.306;2024-03-23T09:37:47;10.70;;;4.13;;
67715;SDS011;54508;43.238;25.306;2024-03-23T09:40:13;9.30;;;3.90;;
67715;SDS011;54508;43.238;25.306;2024-03-23T09:42:38;9.63;;;4.27;;
67715;SDS011;54508;43.238;25.306;2024-03-23T09:45:06;6.20;;;3.53;;
67715;SDS011;54508;43.238;25.306;2024-03-23T09:47:32;10.27;;;4.40;;
67715;SDS011;54508;43.238;25.306;2024-03-23T09:49:57;9.83;;;4.40;;
67715;SDS011;54508;43.238;25.306;2024-03-23T09:52:23;6.60;;;4.90;;
67715;SDS011;54508;43.238;25.306;2024-03-23T09:54:48;7.57;;;4.50;;
67715;SDS011;54508;43.238;25.306;2024-03-23T09:57:14;7.00;;;4.87;;
67715;SDS011;54508;43.238;25.306;2024-03-23T09:59:39;9.13;;;5.20;;
67715;SDS011;54508;43.238;25.306;2024-03-23T10:02:05;10.85;;;4.97;;
67715;SDS011;54508;43.238;25.306;2024-03-23T10:04:41;6.33;;;4.27;;
67715;SDS011;54508;43.238;25.306;2024-03-23T10:07:14;7.20;;;4.30;;
67715;SDS011;54508;43.238;25.306;2024-03-23T10:09:40;8.25;;;4.90;;
67715;SDS011;54508;43.238;25.306;2024-03-23T10:12:12;7.33;;;4.20;;
67715;SDS011;54508;43.238;25.306;2024-03-23T10:14:39;6.45;;;4.13;;
67715;SDS011;54508;43.238;25.306;2024-03-23T10:19:47;15.95;;;4.50;;
67715;SDS011;54508;43.238;25.306;2024-03-23T10:22:16;6.68;;;4.25;;
67715;SDS011;54508;43.238;25.306;2024-03-23T10:24:43;16.33;;;4.27;;
67715;SDS011;54508;43.238;25.306;2024-03-23T10:27:08;8.23;;;4.35;;
67715;SDS011;54508;43.238;25.306;2024-03-23T10:29:34;8.93;;;4.43;;
67715;SDS011;54508;43.238;25.306;2024-03-23T10:32:10;6.35;;;4.15;;
67715;SDS011;54508;43.238;25.306;2024-03-23T10:34:36;10.00;;;3.80;;
67715;SDS011;54508;43.238;25.306;2024-03-23T10:37:02;7.03;;;3.70;;
67715;SDS011;54508;43.238;25.306;2024-03-23T10:39:38;6.78;;;3.88;;
67715;SDS011;54508;43.238;25.306;2024-03-23T10:42:05;11.60;;;4.20;;
67715;SDS011;54508;43.238;25.306;2024-03-23T10:44:33;9.87;;;3.53;;
67715;SDS011;54508;43.238;25.306;2024-03-23T10:46:59;11.32;;;3.78;;
67715;SDS011;54508;43.238;25.306;2024-03-23T10:49:26;10.20;;;4.03;;
67715;SDS011;54508;43.238;25.306;2024-03-23T10:51:54;7.40;;;3.67;;
67715;SDS011;54508;43.238;25.306;2024-03-23T10:54:20;6.97;;;4.28;;
67715;SDS011;54508;43.238;25.306;2024-03-23T10:56:46;9.23;;;4.10;;
67715;SDS011;54508;43.238;25.306;2024-03-23T10:59:13;7.57;;;3.92;;
67715;SDS011;54508;43.238;25.306;2024-03-23T11:01:55;12.50;;;4.00;;
67715;SDS011;54508;43.238;25.306;2024-03-23T11:04:36;13.13;;;4.35;;
67715;SDS011;54508;43.238;25.306;2024-03-23T11:09:51;10.63;;;3.90;;
67715;SDS011;54508;43.238;25.306;2024-03-23T11:12:24;8.13;;;3.63;;
67715;SDS011;54508;43.238;25.306;2024-03-23T11:15:04;7.03;;;3.72;;
67715;SDS011;54508;43.238;25.306;2024-03-23T11:17:31;6.57;;;3.53;;
67715;SDS011;54508;43.238;25.306;2024-03-23T11:20:00;6.60;;;3.60;;
67715;SDS011;54508;43.238;25.306;2024-03-23T11:27:45;6.20;;;4.05;;
67715;SDS011;54508;43.238;25.306;2024-03-23T11:30:30;6.57;;;3.60;;
67715;SDS011;54508;43.238;25.306;2024-03-23T11:32:56;6.55;;;3.03;;
67715;SDS011;54508;43.238;25.306;2024-03-23T11:35:29;10.83;;;3.77;;
67715;SDS011;54508;43.238;25.306;2024-03-23T11:38:07;6.90;;;3.30;;
67715;SDS011;54508;43.238;25.306;2024-03-23T11:40:40;5.53;;;3.22;;
67715;SDS011;54508;43.238;25.306;2024-03-23T11:43:07;7.03;;;3.33;;
67715;SDS011;54508;43.238;25.306;2024-03-23T11:45:46;5.30;;;3.03;;
67715;SDS011;54508;43.238;25.306;2024-03-23T11:48:20;4.47;;;3.27;;
67715;SDS011;54508;43.238;25.306;2024-03-23T11:50:47;5.45;;;3.10;;
67715;SDS011;54508;43.238;25.306;2024-03-23T11:53:17;5.72;;;3.47;;
67715;SDS011;54508;43.238;25.306;2024-03-23T11:55:47;5.28;;;3.13;;
67715;SDS011;54508;43.238;25.306;2024-03-23T11:58:19;6.55;;;3.03;;
67715;SDS011;54508;43.238;25.306;2024-03-23T12:00:51;4.90;;;3.10;;
67715;SDS011;54508;43.238;25.306;2024-03-23T12:03:17;5.22;;;3.22;;
67715;SDS011;54508;43.238;25.306;2024-03-23T12:05:47;4.30;;;2.95;;
67715;SDS011;54508;43.238;25.306;2024-03-23T12:11:04;4.68;;;3.08;;
67715;SDS011;54508;43.238;25.306;2024-03-23T12:13:40;3.80;;;3.10;;
67715;SDS011;54508;43.238;25.306;2024-03-23T12:16:11;4.50;;;2.78;;
67715;SDS011;54508;43.238;25.306;2024-03-23T12:18:50;5.30;;;3.10;;
67715;SDS011;54508;43.238;25.306;2024-03-23T12:21:22;3.95;;;3.08;;
67715;SDS011;54508;43.238;25.306;2024-03-23T12:23:50;4.20;;;2.80;;
67715;SDS011;54508;43.238;25.306;2024-03-23T12:26:18;4.40;;;2.73;;
67715;SDS011;54508;43.238;25.306;2024-03-23T12:28:43;4.07;;;2.70;;
67715;SDS011;54508;43.238;25.306;2024-03-23T12:31:09;3.30;;;2.43;;
67715;SDS011;54508;43.238;25.306;2024-03-23T12:33:35;3.63;;;2.95;;
67715;SDS011;54508;43.238;25.306;2024-03-23T12:36:01;4.07;;;2.73;;
67715;SDS011;54508;43.238;25.306;2024-03-23T12:38:27;3.87;;;2.70;;
67715;SDS011;54508;43.238;25.306;2024-03-23T12:40:52;3.80;;;2.77;;
67715;SDS011;54508;43.238;25.306;2024-03-23T12:43:17;3.67;;;2.75;;
67715;SDS011;54508;43.238;25.306;2024-03-23T12:45:46;3.67;;;2.73;;
67715;SDS011;54508;43.238;25.306;2024-03-23T12:48:12;3.83;;;2.60;;
67715;SDS011;54508;43.238;25.306;2024-03-23T12:50:37;4.00;;;3.10;;
67715;SDS011;54508;43.238;25.306;2024-03-23T12:53:03;5.70;;;3.23;;
67715;SDS011;54508;43.238;25.306;2024-03-23T12:55:29;3.78;;;3.00;;
67715;SDS011;54508;43.238;25.306;2024-03-23T12:57:54;4.50;;;2.90;;
67715;SDS011;54508;43.238;25.306;2024-03-23T13:00:19;4.10;;;2.60;;
67715;SDS011;54508;43.238;25.306;2024-03-23T13:02:45;6.55;;;2.80;;
67715;SDS011;54508;43.238;25.306;2024-03-23T13:05:10;4.80;;;3.10;;
67715;SDS011;54508;43.238;25.306;2024-03-23T13:07:36;3.60;;;2.87;;
67715;SDS011;54508;43.238;25.306;2024-03-23T13:10:02;3.60;;;2.60;;
67715;SDS011;54508;43.238;25.306;2024-03-23T13:12:28;4.07;;;3.15;;
67715;SDS011;54508;43.238;25.306;2024-03-23T13:14:54;4.30;;;2.73;;
67715;SDS011;54508;43.238;25.306;2024-03-23T13:17:19;3.90;;;3.00;;
67715;SDS011;54508;43.238;25.306;2024-03-23T13:19:45;3.03;;;2.40;;
67715;SDS011;54508;43.238;25.306;2024-03-23T13:22:10;4.03;;;2.80;;
67715;SDS011;54508;43.238;25.306;2024-03-23T13:24:37;3.53;;;2.88;;
67715;SDS011;54508;43.238;25.306;2024-03-23T13:27:02;3.47;;;2.88;;
67715;SDS011;54508;43.238;25.306;2024-03-23T13:29:29;7.78;;;2.33;;
67715;SDS011;54508;43.238;25.306;2024-03-23T13:31:55;4.10;;;2.78;;
67715;SDS011;54508;43.238;25.306;2024-03-23T13:34:20;3.75;;;2.88;;
67715;SDS011;54508;43.238;25.306;2024-03-23T13:36:46;3.37;;;2.70;;
67715;SDS011;54508;43.238;25.306;2024-03-23T13:39:12;4.60;;;2.85;;
67715;SDS011;54508;43.238;25.306;2024-03-23T13:44:07;3.78;;;2.22;;
67715;SDS011;54508;43.238;25.306;2024-03-23T13:46:35;3.70;;;2.65;;
67715;SDS011;54508;43.238;25.306;2024-03-23T13:49:01;4.00;;;2.43;;
67715;SDS011;54508;43.238;25.306;2024-03-23T13:51:26;3.03;;;2.53;;
67715;SDS011;54508;43.238;25.306;2024-03-23T13:53:55;3.50;;;2.40;;
67715;SDS011;54508;43.238;25.306;2024-03-23T13:56:21;2.88;;;2.45;;
67715;SDS011;54508;43.238;25.306;2024-03-23T13:58:50;5.55;;;2.80;;
67715;SDS011;54508;43.238;25.306;2024-03-23T14:01:15;3.37;;;2.47;;
67715;SDS011;54508;43.238;25.306;2024-03-23T14:03:41;4.25;;;2.42;;
67715;SDS011;54508;43.238;25.306;2024-03-23T14:06:07;2.72;;;2.47;;
67715;SDS011;54508;43.238;25.306;2024-03-23T14:08:34;3.08;;;2.53;;
67715;SDS011;54508;43.238;25.306;2024-03-23T14:11:03;3.97;;;2.67;;
67715;SDS011;54508;43.238;25.306;2024-03-23T14:13:29;3.13;;;2.05;;
67715;SDS011;54508;43.238;25.306;2024-03-23T14:15:55;3.57;;;2.80;;
67715;SDS011;54508;43.238;25.306;2024-03-23T14:18:20;3.03;;;2.38;;
67715;SDS011;54508;43.238;25.306;2024-03-23T14:20:47;2.70;;;2.00;;
67715;SDS011;54508;43.238;25.306;2024-03-23T14:23:13;5.20;;;2.55;;
67715;SDS011;54508;43.238;25.306;2024-03-23T14:25:39;3.57;;;2.77;;
67715;SDS011;54508;43.238;25.306;2024-03-23T14:28:04;3.60;;;2.50;;
67715;SDS011;54508;43.238;25.306;2024-03-23T14:30:29;3.15;;;2.67;;
67715;SDS011;54508;43.238;25.306;2024-03-23T14:32:56;3.35;;;2.80;;
67715;SDS011;54508;43.238;25.306;2024-03-23T14:35:22;4.60;;;2.37;;
67715;SDS011;54508;43.238;25.306;2024-03-23T14:37:48;3.85;;;2.53;;
67715;SDS011;54508;43.238;25.306;2024-03-23T14:40:14;2.67;;;2.20;;
67715;SDS011;54508;43.238;25.306;2024-03-23T14:42:39;2.90;;;2.30;;
67715;SDS011;54508;43.238;25.306;2024-03-23T14:45:06;3.05;;;2.50;;
67715;SDS011;54508;43.238;25.306;2024-03-23T14:47:32;3.33;;;2.35;;
67715;SDS011;54508;43.238;25.306;2024-03-23T14:49:57;2.77;;;2.37;;
67715;SDS011;54508;43.238;25.306;2024-03-23T14:52:23;3.17;;;2.20;;
67715;SDS011;54508;43.238;25.306;2024-03-23T14:54:49;4.47;;;2.30;;
67715;SDS011;54508;43.238;25.306;2024-03-23T14:57:14;3.00;;;2.33;;
67715;SDS011;54508;43.238;25.306;2024-03-23T14:59:40;2.88;;;2.30;;
67715;SDS011;54508;43.238;25.306;2024-03-23T15:02:06;2.55;;;2.30;;
67715;SDS011;54508;43.238;25.306;2024-03-23T15:04:32;2.83;;;2.33;;
67715;SDS011;54508;43.238;25.306;2024-03-23T15:06:57;3.37;;;2.20;;
67715;SDS011;54508;43.238;25.306;2024-03-23T15:09:23;3.77;;;2.07;;
67715;SDS011;54508;43.238;25.306;2024-03-23T15:11:48;3.00;;;2.30;;
67715;SDS011;54508;43.238;25.306;2024-03-23T15:14:13;2.97;;;2.07;;
67715;SDS011;54508;43.238;25.306;2024-03-23T15:16:39;3.72;;;2.50;;
67715;SDS011;54508;43.238;25.306;2024-03-23T15:19:04;3.43;;;2.40;;
67715;SDS011;54508;43.238;25.306;2024-03-23T15:21:31;4.43;;;2.38;;
67715;SDS011;54508;43.238;25.306;2024-03-23T15:23:57;2.77;;;1.93;;
67715;SDS011;54508;43.238;25.306;2024-03-23T15:26:22;3.25;;;2.60;;
67715;SDS011;54508;43.238;25.306;2024-03-23T15:28:48;2.63;;;2.30;;
67715;SDS011;54508;43.238;25.306;2024-03-23T15:31:22;3.58;;;2.42;;
67715;SDS011;54508;43.238;25.306;2024-03-23T15:33:48;3.17;;;2.30;;
67715;SDS011;54508;43.238;25.306;2024-03-23T15:36:13;2.50;;;2.00;;
67715;SDS011;54508;43.238;25.306;2024-03-23T15:38:39;3.38;;;2.00;;
67715;SDS011;54508;43.238;25.306;2024-03-23T15:41:04;3.93;;;2.40;;